sensor_id;sensor_type;location;lat;lon;timestamp;temperature;humidity
68764;DHT22;55754;52.038;5.566;2022-09-09T00:00:33;17.30;78.60
68764;DHT22;55754;52.038;5.566;2022-09-09T00:03:18;17.30;78.40
68764;DHT22;55754;52.038;5.566;2022-09-09T00:11:13;17.30;78.40
68764;DHT22;55754;52.038;5.566;2022-09-09T00:13:53;17.20;78.30
68764;DHT22;55754;52.038;5.566;2022-09-09T00:16:25;17.20;78.50
68764;DHT22;55754;52.038;5.566;2022-09-09T00:19:01;17.10;78.70
68764;DHT22;55754;52.038;5.566;2022-09-09T00:21:33;17.00;78.60
68764;DHT22;55754;52.038;5.566;2022-09-09T00:24:08;17.00;78.70
68764;DHT22;55754;52.038;5.566;2022-09-09T00:26:38;17.00;79.00
68764;DHT22;55754;52.038;5.566;2022-09-09T00:31:51;17.00;79.60
68764;DHT22;55754;52.038;5.566;2022-09-09T00:34:23;16.90;79.10
68764;DHT22;55754;52.038;5.566;2022-09-09T00:36:52;16.90;79.30
68764;DHT22;55754;52.038;5.566;2022-09-09T00:39:36;17.10;79.40
68764;DHT22;55754;52.038;5.566;2022-09-09T00:44:37;16.70;79.50
68764;DHT22;55754;52.038;5.566;2022-09-09T00:47:16;16.70;79.70
68764;DHT22;55754;52.038;5.566;2022-09-09T00:49:50;16.70;79.80
68764;DHT22;55754;52.038;5.566;2022-09-09T00:52:51;16.70;80.00
68764;DHT22;55754;52.038;5.566;2022-09-09T00:58:22;16.60;80.00
68764;DHT22;55754;52.038;5.566;2022-09-09T01:00:55;16.60;79.70
68764;DHT22;55754;52.038;5.566;2022-09-09T01:03:38;16.60;79.90
68764;DHT22;55754;52.038;5.566;2022-09-09T01:06:24;16.60;80.70
68764;DHT22;55754;52.038;5.566;2022-09-09T01:09:05;16.60;80.20
68764;DHT22;55754;52.038;5.566;2022-09-09T01:12:14;16.60;80.20
68764;DHT22;55754;52.038;5.566;2022-09-09T01:17:23;16.60;80.40
68764;DHT22;55754;52.038;5.566;2022-09-09T01:20:08;16.60;80.90
68764;DHT22;55754;52.038;5.566;2022-09-09T01:25:29;16.70;80.50
68764;DHT22;55754;52.038;5.566;2022-09-09T01:28:00;16.70;80.10
68764;DHT22;55754;52.038;5.566;2022-09-09T01:30:26;16.60;80.10
68764;DHT22;55754;52.038;5.566;2022-09-09T01:32:56;16.60;80.00
68764;DHT22;55754;52.038;5.566;2022-09-09T01:36:09;16.50;80.00
68764;DHT22;55754;52.038;5.566;2022-09-09T01:38:10;16.50;80.10
68764;DHT22;55754;52.038;5.566;2022-09-09T01:40:35;16.50;79.80
68764;DHT22;55754;52.038;5.566;2022-09-09T01:43:02;16.50;79.80
68764;DHT22;55754;52.038;5.566;2022-09-09T01:45:28;16.40;79.70
68764;DHT22;55754;52.038;5.566;2022-09-09T01:47:55;16.40;79.90
68764;DHT22;55754;52.038;5.566;2022-09-09T01:50:22;16.40;80.10
68764;DHT22;55754;52.038;5.566;2022-09-09T01:52:52;16.30;79.90
68764;DHT22;55754;52.038;5.566;2022-09-09T01:55:28;16.40;80.00
68764;DHT22;55754;52.038;5.566;2022-09-09T02:00:25;16.30;79.90
68764;DHT22;55754;52.038;5.566;2022-09-09T02:03:08;16.30;79.80
68764;DHT22;55754;52.038;5.566;2022-09-09T02:05:41;16.30;80.00
68764;DHT22;55754;52.038;5.566;2022-09-09T02:08:17;16.20;79.80
68764;DHT22;55754;52.038;5.566;2022-09-09T02:10:47;16.10;80.30
68764;DHT22;55754;52.038;5.566;2022-09-09T02:13:18;16.10;80.40
68764;DHT22;55754;52.038;5.566;2022-09-09T02:15:56;16.10;80.50
68764;DHT22;55754;52.038;5.566;2022-09-09T02:21:16;16.00;81.30
68764;DHT22;55754;52.038;5.566;2022-09-09T02:23:43;16.00;80.50
68764;DHT22;55754;52.038;5.566;2022-09-09T02:26:13;15.90;80.60
68764;DHT22;55754;52.038;5.566;2022-09-09T02:28:46;15.90;80.50
68764;DHT22;55754;52.038;5.566;2022-09-09T02:31:13;15.90;80.30
68764;DHT22;55754;52.038;5.566;2022-09-09T02:33:44;15.90;80.60
68764;DHT22;55754;52.038;5.566;2022-09-09T02:36:12;15.80;80.80
68764;DHT22;55754;52.038;5.566;2022-09-09T02:38:46;15.70;81.00
68764;DHT22;55754;52.038;5.566;2022-09-09T02:41:19;15.70;81.10
68764;DHT22;55754;52.038;5.566;2022-09-09T02:43:45;15.70;81.00
68764;DHT22;55754;52.038;5.566;2022-09-09T02:49:10;15.60;81.30
68764;DHT22;55754;52.038;5.566;2022-09-09T02:56:53;15.70;80.90
68764;DHT22;55754;52.038;5.566;2022-09-09T02:59:22;15.70;80.90
68764;DHT22;55754;52.038;5.566;2022-09-09T03:01:50;15.60;81.00
68764;DHT22;55754;52.038;5.566;2022-09-09T03:04:15;15.60;81.20
68764;DHT22;55754;52.038;5.566;2022-09-09T03:06:41;15.50;81.30
68764;DHT22;55754;52.038;5.566;2022-09-09T03:09:07;15.50;81.40
68764;DHT22;55754;52.038;5.566;2022-09-09T03:11:36;15.50;81.50
68764;DHT22;55754;52.038;5.566;2022-09-09T03:14:02;15.40;81.70
68764;DHT22;55754;52.038;5.566;2022-09-09T03:16:27;15.40;81.70
68764;DHT22;55754;52.038;5.566;2022-09-09T03:18:53;15.50;82.00
68764;DHT22;55754;52.038;5.566;2022-09-09T03:21:19;15.40;82.00
68764;DHT22;55754;52.038;5.566;2022-09-09T03:23:44;15.40;82.00
68764;DHT22;55754;52.038;5.566;2022-09-09T03:26:10;15.40;81.90
68764;DHT22;55754;52.038;5.566;2022-09-09T03:28:36;15.30;82.20
68764;DHT22;55754;52.038;5.566;2022-09-09T03:31:03;15.20;82.40
68764;DHT22;55754;52.038;5.566;2022-09-09T03:33:29;15.20;82.40
68764;DHT22;55754;52.038;5.566;2022-09-09T03:35:55;15.30;82.50
68764;DHT22;55754;52.038;5.566;2022-09-09T03:38:23;15.20;82.80
68764;DHT22;55754;52.038;5.566;2022-09-09T03:40:50;15.30;82.60
68764;DHT22;55754;52.038;5.566;2022-09-09T03:43:16;15.30;82.60
68764;DHT22;55754;52.038;5.566;2022-09-09T03:45:45;15.30;82.50
68764;DHT22;55754;52.038;5.566;2022-09-09T03:48:13;15.30;82.50
68764;DHT22;55754;52.038;5.566;2022-09-09T03:50:39;15.30;82.60
68764;DHT22;55754;52.038;5.566;2022-09-09T03:53:04;15.30;82.80
68764;DHT22;55754;52.038;5.566;2022-09-09T03:55:31;15.40;82.80
68764;DHT22;55754;52.038;5.566;2022-09-09T03:57:57;15.40;83.20
68764;DHT22;55754;52.038;5.566;2022-09-09T04:00:23;15.40;82.60
68764;DHT22;55754;52.038;5.566;2022-09-09T04:02:49;15.40;82.60
68764;DHT22;55754;52.038;5.566;2022-09-09T04:05:15;15.40;82.50
68764;DHT22;55754;52.038;5.566;2022-09-09T04:07:41;15.40;82.50
68764;DHT22;55754;52.038;5.566;2022-09-09T04:10:07;15.40;82.70
68764;DHT22;55754;52.038;5.566;2022-09-09T04:12:33;15.30;82.50
68764;DHT22;55754;52.038;5.566;2022-09-09T04:15:00;15.40;82.50
68764;DHT22;55754;52.038;5.566;2022-09-09T04:17:27;15.30;82.50
68764;DHT22;55754;52.038;5.566;2022-09-09T04:19:53;15.30;82.60
68764;DHT22;55754;52.038;5.566;2022-09-09T04:22:18;15.30;82.70
68764;DHT22;55754;52.038;5.566;2022-09-09T04:24:44;15.40;83.00
68764;DHT22;55754;52.038;5.566;2022-09-09T04:27:10;15.40;82.80
68764;DHT22;55754;52.038;5.566;2022-09-09T04:29:35;15.30;83.00
68764;DHT22;55754;52.038;5.566;2022-09-09T04:32:01;15.20;83.00
68764;DHT22;55754;52.038;5.566;2022-09-09T04:34:26;15.30;83.20
68764;DHT22;55754;52.038;5.566;2022-09-09T04:36:52;15.30;83.10
68764;DHT22;55754;52.038;5.566;2022-09-09T04:39:18;15.20;83.40
68764;DHT22;55754;52.038;5.566;2022-09-09T04:41:44;15.20;83.30
68764;DHT22;55754;52.038;5.566;2022-09-09T04:44:10;15.20;83.50
68764;DHT22;55754;52.038;5.566;2022-09-09T04:46:36;15.20;83.70
68764;DHT22;55754;52.038;5.566;2022-09-09T04:49:02;15.20;83.80
68764;DHT22;55754;52.038;5.566;2022-09-09T04:51:27;15.20;84.10
68764;DHT22;55754;52.038;5.566;2022-09-09T04:53:53;15.20;84.10
68764;DHT22;55754;52.038;5.566;2022-09-09T04:56:19;15.20;84.00
68764;DHT22;55754;52.038;5.566;2022-09-09T04:58:45;15.20;84.20
68764;DHT22;55754;52.038;5.566;2022-09-09T05:01:21;15.10;84.40
68764;DHT22;55754;52.038;5.566;2022-09-09T05:03:47;15.10;84.40
68764;DHT22;55754;52.038;5.566;2022-09-09T05:06:17;15.10;84.30
68764;DHT22;55754;52.038;5.566;2022-09-09T05:08:44;15.10;84.70
68764;DHT22;55754;52.038;5.566;2022-09-09T05:11:22;15.10;84.70
68764;DHT22;55754;52.038;5.566;2022-09-09T05:13:51;15.10;84.70
68764;DHT22;55754;52.038;5.566;2022-09-09T05:16:18;15.10;84.50
68764;DHT22;55754;52.038;5.566;2022-09-09T05:18:44;15.10;84.90
68764;DHT22;55754;52.038;5.566;2022-09-09T05:21:12;15.10;85.10
68764;DHT22;55754;52.038;5.566;2022-09-09T05:23:38;15.10;85.00
68764;DHT22;55754;52.038;5.566;2022-09-09T05:26:04;15.10;85.50
68764;DHT22;55754;52.038;5.566;2022-09-09T05:28:30;15.10;85.40
68764;DHT22;55754;52.038;5.566;2022-09-09T05:31:00;15.20;85.20
68764;DHT22;55754;52.038;5.566;2022-09-09T05:33:27;15.20;85.00
68764;DHT22;55754;52.038;5.566;2022-09-09T05:36:00;15.20;85.00
68764;DHT22;55754;52.038;5.566;2022-09-09T05:38:28;15.20;85.20
68764;DHT22;55754;52.038;5.566;2022-09-09T05:40:54;15.30;85.00
68764;DHT22;55754;52.038;5.566;2022-09-09T05:43:22;15.30;85.00
68764;DHT22;55754;52.038;5.566;2022-09-09T05:45:48;15.30;85.10
68764;DHT22;55754;52.038;5.566;2022-09-09T05:48:23;15.40;85.10
68764;DHT22;55754;52.038;5.566;2022-09-09T05:50:53;15.70;85.20
68764;DHT22;55754;52.038;5.566;2022-09-09T05:53:19;15.90;84.80
68764;DHT22;55754;52.038;5.566;2022-09-09T05:55:45;16.10;84.30
68764;DHT22;55754;52.038;5.566;2022-09-09T05:58:11;16.40;84.00
68764;DHT22;55754;52.038;5.566;2022-09-09T06:00:37;16.70;83.10
68764;DHT22;55754;52.038;5.566;2022-09-09T06:03:03;16.90;82.40
68764;DHT22;55754;52.038;5.566;2022-09-09T06:05:29;17.10;81.90
68764;DHT22;55754;52.038;5.566;2022-09-09T06:07:55;17.40;81.20
68764;DHT22;55754;52.038;5.566;2022-09-09T06:10:21;17.50;80.70
68764;DHT22;55754;52.038;5.566;2022-09-09T06:12:47;17.70;80.10
68764;DHT22;55754;52.038;5.566;2022-09-09T06:15:12;18.00;79.50
68764;DHT22;55754;52.038;5.566;2022-09-09T06:17:38;18.20;78.90
68764;DHT22;55754;52.038;5.566;2022-09-09T06:20:05;18.40;78.00
68764;DHT22;55754;52.038;5.566;2022-09-09T06:22:31;18.40;77.50
68764;DHT22;55754;52.038;5.566;2022-09-09T06:24:56;18.40;77.40
68764;DHT22;55754;52.038;5.566;2022-09-09T06:27:22;18.40;77.00
68764;DHT22;55754;52.038;5.566;2022-09-09T06:29:47;18.30;77.10
68764;DHT22;55754;52.038;5.566;2022-09-09T06:32:13;18.20;77.40
68764;DHT22;55754;52.038;5.566;2022-09-09T06:34:39;18.30;77.30
68764;DHT22;55754;52.038;5.566;2022-09-09T06:37:05;18.20;77.00
68764;DHT22;55754;52.038;5.566;2022-09-09T06:39:31;18.20;77.40
68764;DHT22;55754;52.038;5.566;2022-09-09T06:41:57;18.20;77.10
68764;DHT22;55754;52.038;5.566;2022-09-09T06:44:24;18.20;77.10
68764;DHT22;55754;52.038;5.566;2022-09-09T06:46:52;18.20;77.20
68764;DHT22;55754;52.038;5.566;2022-09-09T06:49:17;18.20;76.90
68764;DHT22;55754;52.038;5.566;2022-09-09T06:51:43;18.10;77.20
68764;DHT22;55754;52.038;5.566;2022-09-09T06:54:10;18.00;77.20
68764;DHT22;55754;52.038;5.566;2022-09-09T06:56:38;18.00;77.50
68764;DHT22;55754;52.038;5.566;2022-09-09T06:59:07;18.00;77.60
68764;DHT22;55754;52.038;5.566;2022-09-09T07:01:36;18.00;77.70
68764;DHT22;55754;52.038;5.566;2022-09-09T07:04:03;18.00;77.60
68764;DHT22;55754;52.038;5.566;2022-09-09T07:06:34;17.90;77.80
68764;DHT22;55754;52.038;5.566;2022-09-09T07:09:05;18.00;77.70
68764;DHT22;55754;52.038;5.566;2022-09-09T07:11:33;18.00;78.00
68764;DHT22;55754;52.038;5.566;2022-09-09T07:14:00;17.90;78.10
68764;DHT22;55754;52.038;5.566;2022-09-09T07:16:27;17.90;78.10
68764;DHT22;55754;52.038;5.566;2022-09-09T07:18:54;17.90;78.40
68764;DHT22;55754;52.038;5.566;2022-09-09T07:21:27;17.90;78.40
68764;DHT22;55754;52.038;5.566;2022-09-09T07:23:53;17.80;78.30
68764;DHT22;55754;52.038;5.566;2022-09-09T07:26:21;17.90;78.90
68764;DHT22;55754;52.038;5.566;2022-09-09T07:28:47;17.90;78.50
68764;DHT22;55754;52.038;5.566;2022-09-09T07:31:16;17.80;78.80
68764;DHT22;55754;52.038;5.566;2022-09-09T07:33:43;17.90;78.70
68764;DHT22;55754;52.038;5.566;2022-09-09T07:36:14;17.90;78.50
68764;DHT22;55754;52.038;5.566;2022-09-09T07:38:49;17.90;78.50
68764;DHT22;55754;52.038;5.566;2022-09-09T07:41:22;18.00;78.40
68764;DHT22;55754;52.038;5.566;2022-09-09T07:43:49;17.90;78.00
68764;DHT22;55754;52.038;5.566;2022-09-09T07:46:16;17.90;78.10
68764;DHT22;55754;52.038;5.566;2022-09-09T07:48:50;17.90;77.90
68764;DHT22;55754;52.038;5.566;2022-09-09T07:51:29;17.90;78.00
68764;DHT22;55754;52.038;5.566;2022-09-09T07:53:58;18.00;78.00
68764;DHT22;55754;52.038;5.566;2022-09-09T07:56:25;18.00;77.90
68764;DHT22;55754;52.038;5.566;2022-09-09T07:58:53;18.00;77.60
68764;DHT22;55754;52.038;5.566;2022-09-09T08:01:27;17.90;77.40
68764;DHT22;55754;52.038;5.566;2022-09-09T08:04:04;17.90;77.70
68764;DHT22;55754;52.038;5.566;2022-09-09T08:06:36;18.00;77.30
68764;DHT22;55754;52.038;5.566;2022-09-09T08:09:03;17.90;77.10
68764;DHT22;55754;52.038;5.566;2022-09-09T08:11:29;17.90;77.20
68764;DHT22;55754;52.038;5.566;2022-09-09T08:13:55;17.90;76.90
68764;DHT22;55754;52.038;5.566;2022-09-09T08:16:24;17.90;76.80
68764;DHT22;55754;52.038;5.566;2022-09-09T08:18:51;17.80;77.00
68764;DHT22;55754;52.038;5.566;2022-09-09T08:21:25;17.70;77.10
68764;DHT22;55754;52.038;5.566;2022-09-09T08:23:53;17.80;77.10
68764;DHT22;55754;52.038;5.566;2022-09-09T08:26:21;17.90;77.10
68764;DHT22;55754;52.038;5.566;2022-09-09T08:28:52;17.90;77.00
68764;DHT22;55754;52.038;5.566;2022-09-09T08:31:21;18.10;77.10
68764;DHT22;55754;52.038;5.566;2022-09-09T08:33:48;18.10;76.80
68764;DHT22;55754;52.038;5.566;2022-09-09T08:36:20;18.20;76.50
68764;DHT22;55754;52.038;5.566;2022-09-09T08:38:54;18.10;76.20
68764;DHT22;55754;52.038;5.566;2022-09-09T08:47:38;17.90;76.10
68764;DHT22;55754;52.038;5.566;2022-09-09T08:56:24;18.00;76.20
68764;DHT22;55754;52.038;5.566;2022-09-09T08:58:21;18.00;76.00
68764;DHT22;55754;52.038;5.566;2022-09-09T09:09:09;18.10;75.60
68764;DHT22;55754;52.038;5.566;2022-09-09T09:11:50;18.10;75.50
68764;DHT22;55754;52.038;5.566;2022-09-09T09:14:25;18.10;75.40
68764;DHT22;55754;52.038;5.566;2022-09-09T09:19:41;18.00;75.50
68764;DHT22;55754;52.038;5.566;2022-09-09T09:25:11;18.00;75.40
68764;DHT22;55754;52.038;5.566;2022-09-09T09:30:40;18.00;75.70
68764;DHT22;55754;52.038;5.566;2022-09-09T09:33:35;17.90;75.10
68764;DHT22;55754;52.038;5.566;2022-09-09T09:36:08;17.90;75.40
68764;DHT22;55754;52.038;5.566;2022-09-09T09:38:34;17.90;75.00
68764;DHT22;55754;52.038;5.566;2022-09-09T09:41:01;17.70;75.00
68764;DHT22;55754;52.038;5.566;2022-09-09T09:43:29;18.00;75.10
68764;DHT22;55754;52.038;5.566;2022-09-09T09:45:57;18.00;75.20
68764;DHT22;55754;52.038;5.566;2022-09-09T09:48:24;18.00;75.00
68764;DHT22;55754;52.038;5.566;2022-09-09T09:51:03;18.00;74.80
68764;DHT22;55754;52.038;5.566;2022-09-09T09:53:34;18.00;75.00
68764;DHT22;55754;52.038;5.566;2022-09-09T09:56:05;18.10;74.90
68764;DHT22;55754;52.038;5.566;2022-09-09T10:01:23;18.10;74.90
68764;DHT22;55754;52.038;5.566;2022-09-09T10:03:54;18.10;75.00
68764;DHT22;55754;52.038;5.566;2022-09-09T10:06:34;18.10;74.70
68764;DHT22;55754;52.038;5.566;2022-09-09T10:09:01;18.20;74.80
68764;DHT22;55754;52.038;5.566;2022-09-09T10:11:42;18.10;74.50
68764;DHT22;55754;52.038;5.566;2022-09-09T10:14:27;18.10;75.50
68764;DHT22;55754;52.038;5.566;2022-09-09T10:17:14;18.00;74.00
68764;DHT22;55754;52.038;5.566;2022-09-09T10:19:58;18.00;74.20
68764;DHT22;55754;52.038;5.566;2022-09-09T10:22:28;18.10;74.30
68764;DHT22;55754;52.038;5.566;2022-09-09T10:33:24;18.10;74.10
68764;DHT22;55754;52.038;5.566;2022-09-09T10:36:20;18.10;73.90
68764;DHT22;55754;52.038;5.566;2022-09-09T10:38:52;18.10;74.00
68764;DHT22;55754;52.038;5.566;2022-09-09T10:59:45;17.60;80.50
68764;DHT22;55754;52.038;5.566;2022-09-09T11:02:39;17.60;80.90
68764;DHT22;55754;52.038;5.566;2022-09-09T11:05:17;17.60;82.00
68764;DHT22;55754;52.038;5.566;2022-09-09T11:07:57;17.70;81.70
68764;DHT22;55754;52.038;5.566;2022-09-09T11:10:44;17.80;81.70
68764;DHT22;55754;52.038;5.566;2022-09-09T11:16:33;18.00;83.00
68764;DHT22;55754;52.038;5.566;2022-09-09T11:21:52;18.00;83.10
68764;DHT22;55754;52.038;5.566;2022-09-09T11:27:09;17.80;82.40
68764;DHT22;55754;52.038;5.566;2022-09-09T11:32:48;17.70;82.80
68764;DHT22;55754;52.038;5.566;2022-09-09T11:38:26;18.00;84.10
68764;DHT22;55754;52.038;5.566;2022-09-09T11:43:31;18.10;82.90
68764;DHT22;55754;52.038;5.566;2022-09-09T11:46:01;18.10;82.90
68764;DHT22;55754;52.038;5.566;2022-09-09T11:48:36;18.10;82.20
68764;DHT22;55754;52.038;5.566;2022-09-09T11:53:53;18.20;82.20
68764;DHT22;55754;52.038;5.566;2022-09-09T11:56:31;18.20;82.20
68764;DHT22;55754;52.038;5.566;2022-09-09T11:59:05;18.10;81.90
68764;DHT22;55754;52.038;5.566;2022-09-09T12:01:39;18.10;81.40
68764;DHT22;55754;52.038;5.566;2022-09-09T12:17:50;18.10;80.30
68764;DHT22;55754;52.038;5.566;2022-09-09T12:20:34;18.10;80.20
68764;DHT22;55754;52.038;5.566;2022-09-09T12:28:18;18.10;80.60
68764;DHT22;55754;52.038;5.566;2022-09-09T12:33:18;18.00;80.90
68764;DHT22;55754;52.038;5.566;2022-09-09T12:35:48;18.10;80.60
68764;DHT22;55754;52.038;5.566;2022-09-09T12:38:32;18.10;80.20
68764;DHT22;55754;52.038;5.566;2022-09-09T12:40:59;18.20;81.00
68764;DHT22;55754;52.038;5.566;2022-09-09T12:43:26;18.30;79.90
68764;DHT22;55754;52.038;5.566;2022-09-09T12:45:59;18.40;80.00
68764;DHT22;55754;52.038;5.566;2022-09-09T12:48:35;18.30;79.60
68764;DHT22;55754;52.038;5.566;2022-09-09T12:51:02;18.40;79.80
68764;DHT22;55754;52.038;5.566;2022-09-09T12:53:36;18.40;79.80
68764;DHT22;55754;52.038;5.566;2022-09-09T12:56:07;18.40;79.60
68764;DHT22;55754;52.038;5.566;2022-09-09T12:58:34;18.40;79.30
68764;DHT22;55754;52.038;5.566;2022-09-09T13:01:02;18.50;79.00
68764;DHT22;55754;52.038;5.566;2022-09-09T13:03:33;18.50;78.90
68764;DHT22;55754;52.038;5.566;2022-09-09T13:06:16;18.50;78.90
68764;DHT22;55754;52.038;5.566;2022-09-09T13:08:44;18.50;78.50
68764;DHT22;55754;52.038;5.566;2022-09-09T13:11:13;18.40;78.30
68764;DHT22;55754;52.038;5.566;2022-09-09T13:13:42;18.40;78.20
68764;DHT22;55754;52.038;5.566;2022-09-09T13:16:29;18.50;78.40
68764;DHT22;55754;52.038;5.566;2022-09-09T13:19:15;18.50;78.30
68764;DHT22;55754;52.038;5.566;2022-09-09T13:21:41;18.50;78.00
68764;DHT22;55754;52.038;5.566;2022-09-09T13:24:28;18.60;78.00
68764;DHT22;55754;52.038;5.566;2022-09-09T13:27:00;18.60;77.80
68764;DHT22;55754;52.038;5.566;2022-09-09T13:29:30;18.60;77.80
68764;DHT22;55754;52.038;5.566;2022-09-09T13:32:06;18.60;77.40
68764;DHT22;55754;52.038;5.566;2022-09-09T13:34:38;18.70;77.20
68764;DHT22;55754;52.038;5.566;2022-09-09T13:37:05;18.70;77.20
68764;DHT22;55754;52.038;5.566;2022-09-09T13:39:36;18.70;76.90
68764;DHT22;55754;52.038;5.566;2022-09-09T13:42:03;18.70;77.00
68764;DHT22;55754;52.038;5.566;2022-09-09T13:44:35;18.70;76.90
68764;DHT22;55754;52.038;5.566;2022-09-09T13:47:04;18.80;77.00
68764;DHT22;55754;52.038;5.566;2022-09-09T13:49:31;18.80;76.60
68764;DHT22;55754;52.038;5.566;2022-09-09T13:52:12;18.90;76.80
68764;DHT22;55754;52.038;5.566;2022-09-09T13:54:42;18.90;76.70
68764;DHT22;55754;52.038;5.566;2022-09-09T13:57:23;18.90;76.10
68764;DHT22;55754;52.038;5.566;2022-09-09T13:59:51;18.90;76.00
68764;DHT22;55754;52.038;5.566;2022-09-09T14:02:17;18.90;76.20
68764;DHT22;55754;52.038;5.566;2022-09-09T14:04:44;19.00;76.10
68764;DHT22;55754;52.038;5.566;2022-09-09T14:07:14;19.00;75.70
68764;DHT22;55754;52.038;5.566;2022-09-09T14:09:40;19.00;75.70
68764;DHT22;55754;52.038;5.566;2022-09-09T14:12:12;19.00;75.40
68764;DHT22;55754;52.038;5.566;2022-09-09T14:14:39;19.00;75.50
68764;DHT22;55754;52.038;5.566;2022-09-09T14:17:05;19.00;75.50
68764;DHT22;55754;52.038;5.566;2022-09-09T14:19:31;19.20;75.60
68764;DHT22;55754;52.038;5.566;2022-09-09T14:21:57;19.20;75.10
68764;DHT22;55754;52.038;5.566;2022-09-09T14:24:23;19.20;74.90
68764;DHT22;55754;52.038;5.566;2022-09-09T14:26:49;19.30;74.80
68764;DHT22;55754;52.038;5.566;2022-09-09T14:29:14;19.40;75.10
68764;DHT22;55754;52.038;5.566;2022-09-09T14:31:40;19.50;75.10
68764;DHT22;55754;52.038;5.566;2022-09-09T14:34:05;19.50;74.90
68764;DHT22;55754;52.038;5.566;2022-09-09T14:36:31;19.60;74.80
68764;DHT22;55754;52.038;5.566;2022-09-09T14:38:57;19.60;74.50
68764;DHT22;55754;52.038;5.566;2022-09-09T14:41:24;19.70;74.50
68764;DHT22;55754;52.038;5.566;2022-09-09T14:43:51;19.70;74.50
68764;DHT22;55754;52.038;5.566;2022-09-09T14:46:18;19.80;74.30
68764;DHT22;55754;52.038;5.566;2022-09-09T14:48:44;19.80;74.10
68764;DHT22;55754;52.038;5.566;2022-09-09T14:51:28;19.80;73.90
68764;DHT22;55754;52.038;5.566;2022-09-09T14:53:55;19.80;73.90
68764;DHT22;55754;52.038;5.566;2022-09-09T14:56:24;19.90;73.70
68764;DHT22;55754;52.038;5.566;2022-09-09T14:58:53;19.90;73.50
68764;DHT22;55754;52.038;5.566;2022-09-09T15:01:20;19.80;73.40
68764;DHT22;55754;52.038;5.566;2022-09-09T15:03:53;19.90;73.60
68764;DHT22;55754;52.038;5.566;2022-09-09T15:06:20;20.00;73.30
68764;DHT22;55754;52.038;5.566;2022-09-09T15:08:47;20.00;73.10
68764;DHT22;55754;52.038;5.566;2022-09-09T15:11:13;20.00;73.30
68764;DHT22;55754;52.038;5.566;2022-09-09T15:13:40;19.90;73.20
68764;DHT22;55754;52.038;5.566;2022-09-09T15:16:11;19.90;73.20
68764;DHT22;55754;52.038;5.566;2022-09-09T15:18:37;19.90;73.20
68764;DHT22;55754;52.038;5.566;2022-09-09T15:21:16;19.90;72.20
68764;DHT22;55754;52.038;5.566;2022-09-09T15:23:43;19.90;72.60
68764;DHT22;55754;52.038;5.566;2022-09-09T15:26:09;19.90;72.20
68764;DHT22;55754;52.038;5.566;2022-09-09T15:28:37;19.80;72.00
68764;DHT22;55754;52.038;5.566;2022-09-09T15:31:23;19.80;72.10
68764;DHT22;55754;52.038;5.566;2022-09-09T15:34:00;19.80;72.10
68764;DHT22;55754;52.038;5.566;2022-09-09T15:36:31;19.70;72.00
68764;DHT22;55754;52.038;5.566;2022-09-09T15:38:58;19.60;72.10
68764;DHT22;55754;52.038;5.566;2022-09-09T15:41:25;19.60;72.50
68764;DHT22;55754;52.038;5.566;2022-09-09T15:43:52;19.60;72.50
68764;DHT22;55754;52.038;5.566;2022-09-09T15:46:49;19.60;72.80
68764;DHT22;55754;52.038;5.566;2022-09-09T15:49:18;19.70;73.70
68764;DHT22;55754;52.038;5.566;2022-09-09T15:51:46;19.70;73.30
68764;DHT22;55754;52.038;5.566;2022-09-09T15:54:18;19.80;73.40
68764;DHT22;55754;52.038;5.566;2022-09-09T15:56:47;19.80;73.30
68764;DHT22;55754;52.038;5.566;2022-09-09T15:59:15;19.80;72.50
68764;DHT22;55754;52.038;5.566;2022-09-09T16:01:41;19.80;71.90
68764;DHT22;55754;52.038;5.566;2022-09-09T16:04:07;19.90;71.60
68764;DHT22;55754;52.038;5.566;2022-09-09T16:06:33;19.80;70.60
68764;DHT22;55754;52.038;5.566;2022-09-09T16:09:00;19.80;70.30
68764;DHT22;55754;52.038;5.566;2022-09-09T16:11:29;19.70;69.80
68764;DHT22;55754;52.038;5.566;2022-09-09T16:13:56;19.70;69.50
68764;DHT22;55754;52.038;5.566;2022-09-09T16:16:25;19.60;69.70
68764;DHT22;55754;52.038;5.566;2022-09-09T16:18:59;19.50;69.60
68764;DHT22;55754;52.038;5.566;2022-09-09T16:21:30;19.50;69.50
68764;DHT22;55754;52.038;5.566;2022-09-09T16:23:57;19.50;69.70
68764;DHT22;55754;52.038;5.566;2022-09-09T16:26:25;19.40;69.70
68764;DHT22;55754;52.038;5.566;2022-09-09T16:28:51;19.40;69.70
68764;DHT22;55754;52.038;5.566;2022-09-09T16:31:22;19.40;69.90
68764;DHT22;55754;52.038;5.566;2022-09-09T16:33:48;19.40;70.00
68764;DHT22;55754;52.038;5.566;2022-09-09T16:36:17;19.40;70.10
68764;DHT22;55754;52.038;5.566;2022-09-09T16:38:43;19.40;70.20
68764;DHT22;55754;52.038;5.566;2022-09-09T16:41:10;19.40;70.40
68764;DHT22;55754;52.038;5.566;2022-09-09T16:43:36;19.30;70.40
68764;DHT22;55754;52.038;5.566;2022-09-09T16:46:03;19.30;70.60
68764;DHT22;55754;52.038;5.566;2022-09-09T16:48:33;19.30;70.90
68764;DHT22;55754;52.038;5.566;2022-09-09T16:51:13;19.30;71.20
68764;DHT22;55754;52.038;5.566;2022-09-09T16:53:39;19.30;71.40
68764;DHT22;55754;52.038;5.566;2022-09-09T16:56:12;19.30;71.30
68764;DHT22;55754;52.038;5.566;2022-09-09T16:58:39;19.30;71.50
68764;DHT22;55754;52.038;5.566;2022-09-09T17:01:05;19.30;71.80
68764;DHT22;55754;52.038;5.566;2022-09-09T17:03:31;19.40;71.90
68764;DHT22;55754;52.038;5.566;2022-09-09T17:05:58;19.30;71.80
68764;DHT22;55754;52.038;5.566;2022-09-09T17:08:30;19.40;71.90
68764;DHT22;55754;52.038;5.566;2022-09-09T17:10:57;19.40;71.90
68764;DHT22;55754;52.038;5.566;2022-09-09T17:13:24;19.40;71.90
68764;DHT22;55754;52.038;5.566;2022-09-09T17:15:50;19.40;72.00
68764;DHT22;55754;52.038;5.566;2022-09-09T17:18:16;19.30;72.30
68764;DHT22;55754;52.038;5.566;2022-09-09T17:20:42;19.30;72.30
68764;DHT22;55754;52.038;5.566;2022-09-09T17:23:10;19.30;72.40
68764;DHT22;55754;52.038;5.566;2022-09-09T17:25:37;19.30;72.60
68764;DHT22;55754;52.038;5.566;2022-09-09T17:28:03;19.30;72.80
68764;DHT22;55754;52.038;5.566;2022-09-09T17:30:38;19.20;72.80
68764;DHT22;55754;52.038;5.566;2022-09-09T17:33:04;19.10;73.10
68764;DHT22;55754;52.038;5.566;2022-09-09T17:35:31;19.10;73.00
68764;DHT22;55754;52.038;5.566;2022-09-09T17:37:58;19.10;73.10
68764;DHT22;55754;52.038;5.566;2022-09-09T17:40:24;19.00;73.10
68764;DHT22;55754;52.038;5.566;2022-09-09T17:42:49;19.00;73.10
68764;DHT22;55754;52.038;5.566;2022-09-09T17:45:15;19.00;73.50
68764;DHT22;55754;52.038;5.566;2022-09-09T17:47:41;19.00;73.30
68764;DHT22;55754;52.038;5.566;2022-09-09T17:50:09;18.90;73.20
68764;DHT22;55754;52.038;5.566;2022-09-09T17:52:35;18.90;73.00
68764;DHT22;55754;52.038;5.566;2022-09-09T17:55:03;18.80;73.00
68764;DHT22;55754;52.038;5.566;2022-09-09T17:57:29;18.80;73.10
68764;DHT22;55754;52.038;5.566;2022-09-09T17:59:54;18.80;73.00